PWSweather.com
Personal Weather Stations
Station Observations
KCACOARS9
Yosemite Lakes Park, Coarsegold, CA 93614

Yosemite Lakes ParkCoarsegold, CA 93614

Lat: 37.180241, Lon: -119.765989

Elevation: 1266

Station Type: Davis Vantage Vue

http://www.weathervise.com

Latest ConditionsUpdated 9:15:08 AM PST Monday, Jan 21, 2019
Currently Today's Max Today's Min Today's Average
Temperature 44.1°F6.7°C 44.1°F6.7°C 41.8°F5.4°C 42.4°F5.8°C
Dew Point 42.8°F6.0°C 42.8°F6.0°C 40.1°F4.5°C 41.1°F5.1°C
Winds Calm Calm 5.0 mph -8.0 kmh - - 0.1 mph 0.2 kmh
Wind Gusts -- 6.0 mph9.7 kmh - -
Humidity 95% 97% 92% 95%
Pressure 30.22 in1023.4 mb 30.22 in1023.4 mb 30.06 in1017.9 mb -
Hour Temp Dew Point Humidity Winds Wind Gusts Pressure Precip Precip Rate Daily Precip Total
09:15 AM 44.1°F6.7°C 42.8°F6.0°C 95% Calm Calm -- 30.22 in1023.4 mb 0.00 in0.0 mm 0.00 in0.0 mm 0.04 in1.0 mm
09:10 AM 43.9°F6.6°C 42.6°F5.9°C 95% Calm Calm -- 30.22 in1023.4 mb 0.00 in0.0 mm 0.00 in0.0 mm 0.04 in1.0 mm
09:05 AM 43.9°F6.6°C 42.8°F6.0°C 96% Calm Calm -- 30.22 in1023.4 mb 0.00 in0.0 mm 0.00 in0.0 mm 0.04 in1.0 mm
09:00 AM 43.7°F6.5°C 42.6°F5.9°C 96% Calm Calm -- 30.21 in1023.0 mb 0.00 in0.0 mm 0.00 in0.0 mm 0.04 in1.0 mm
08:55 AM 43.5°F6.4°C 42.4°F5.8°C 96% Calm Calm -- 30.21 in1023.0 mb 0.00 in0.0 mm 0.00 in0.0 mm 0.04 in1.0 mm
08:50 AM 43.3°F6.3°C 42.2°F5.7°C 96% Calm Calm -- 30.21 in1023.0 mb 0.00 in0.0 mm 0.00 in0.0 mm 0.04 in1.0 mm
08:45 AM 43.3°F6.3°C 42.5°F5.8°C 97% Calm Calm -- 30.20 in1022.7 mb 0.00 in0.0 mm 0.00 in0.0 mm 0.04 in1.0 mm
08:40 AM 43.0°F6.1°C 41.9°F5.5°C 96% Calm Calm -- 30.20 in1022.7 mb 0.00 in0.0 mm 0.00 in0.0 mm 0.04 in1.0 mm
08:35 AM 43.0°F6.1°C 41.9°F5.5°C 96% Calm Calm -- 30.20 in1022.7 mb 0.00 in0.0 mm 0.00 in0.0 mm 0.04 in1.0 mm
08:30 AM 42.9°F6.1°C 41.8°F5.4°C 96% Calm Calm -- 30.20 in1022.7 mb 0.00 in0.0 mm 0.00 in0.0 mm 0.04 in1.0 mm
08:25 AM 42.9°F6.1°C 41.8°F5.4°C 96% Calm Calm -- 30.19 in1022.4 mb 0.01 in0.3 mm 0.00 in0.0 mm 0.04 in1.0 mm
08:20 AM 42.9°F6.1°C 41.8°F5.4°C 96% Calm Calm -- 30.19 in1022.4 mb 0.01 in0.3 mm 0.00 in0.0 mm 0.04 in1.0 mm
08:15 AM 42.8°F6.0°C 41.7°F5.4°C 96% Calm Calm -- 30.19 in1022.4 mb 0.01 in0.3 mm 0.00 in0.0 mm 0.04 in1.0 mm
08:10 AM 42.7°F5.9°C 41.6°F5.3°C 96% Calm Calm -- 30.19 in1022.4 mb 0.01 in0.3 mm 0.00 in0.0 mm 0.04 in1.0 mm
08:05 AM 42.7°F5.9°C 41.6°F5.3°C 96% Calm Calm -- 30.19 in1022.4 mb 0.01 in0.3 mm 0.00 in0.0 mm 0.04 in1.0 mm
08:00 AM 42.5°F5.8°C 41.4°F5.2°C 96% Calm Calm -- 30.19 in1022.4 mb 0.01 in0.3 mm 0.00 in0.0 mm 0.04 in1.0 mm
07:55 AM 42.3°F5.7°C 41.2°F5.1°C 96% Calm Calm -- 30.19 in1022.4 mb 0.01 in0.3 mm 0.00 in0.0 mm 0.04 in1.0 mm
07:50 AM 42.3°F5.7°C 41.2°F5.1°C 96% Calm Calm -- 30.19 in1022.4 mb 0.02 in0.5 mm 0.00 in0.0 mm 0.04 in1.0 mm
07:45 AM 42.4°F5.8°C 41.3°F5.2°C 96% Calm Calm -- 30.18 in1022.0 mb 0.02 in0.5 mm 0.00 in0.0 mm 0.04 in1.0 mm
07:40 AM 42.4°F5.8°C 41.3°F5.2°C 96% Calm Calm -- 30.18 in1022.0 mb 0.02 in0.5 mm 0.00 in0.0 mm 0.04 in1.0 mm
07:35 AM 42.3°F5.7°C 41.2°F5.1°C 96% Calm Calm -- 30.18 in1022.0 mb 0.02 in0.5 mm 0.00 in0.0 mm 0.04 in1.0 mm
07:30 AM 42.3°F5.7°C 41.2°F5.1°C 96% Calm Calm -- 30.18 in1022.0 mb 0.02 in0.5 mm 0.12 in3.0 mm 0.04 in1.0 mm
07:25 AM 42.3°F5.7°C 41.2°F5.1°C 96% Calm Calm -- 30.18 in1022.0 mb 0.01 in0.3 mm 0.00 in0.0 mm 0.03 in0.8 mm
07:20 AM 42.3°F5.7°C 41.2°F5.1°C 96% Calm Calm -- 30.18 in1022.0 mb 0.01 in0.3 mm 0.00 in0.0 mm 0.03 in0.8 mm
07:15 AM 42.3°F5.7°C 41.2°F5.1°C 96% Calm Calm -- 30.17 in1021.7 mb 0.01 in0.3 mm 0.00 in0.0 mm 0.03 in0.8 mm
07:10 AM 42.4°F5.8°C 41.3°F5.2°C 96% Calm Calm -- 30.18 in1022.0 mb 0.01 in0.3 mm 0.00 in0.0 mm 0.03 in0.8 mm
07:05 AM 42.4°F5.8°C 41.3°F5.2°C 96% Calm Calm -- 30.17 in1021.7 mb 0.01 in0.3 mm 0.00 in0.0 mm 0.03 in0.8 mm
07:00 AM 42.4°F5.8°C 41.3°F5.2°C 96% Calm Calm -- 30.17 in1021.7 mb 0.01 in0.3 mm 0.00 in0.0 mm 0.03 in0.8 mm
06:55 AM 42.4°F5.8°C 41.3°F5.2°C 96% Calm Calm -- 30.17 in1021.7 mb 0.01 in0.3 mm 0.12 in3.0 mm 0.03 in0.8 mm
06:50 AM 42.4°F5.8°C 41.3°F5.2°C 96% Calm Calm -- 30.17 in1021.7 mb 0.00 in0.0 mm 0.00 in0.0 mm 0.02 in0.5 mm
06:45 AM 42.4°F5.8°C 41.3°F5.2°C 96% Calm Calm -- 30.16 in1021.3 mb 0.00 in0.0 mm 0.00 in0.0 mm 0.02 in0.5 mm
06:40 AM 42.3°F5.7°C 41.2°F5.1°C 96% Calm Calm -- 30.16 in1021.3 mb 0.00 in0.0 mm 0.00 in0.0 mm 0.02 in0.5 mm
06:35 AM 42.3°F5.7°C 41.2°F5.1°C 96% Calm Calm -- 30.16 in1021.3 mb 0.00 in0.0 mm 0.00 in0.0 mm 0.02 in0.5 mm
06:30 AM 42.3°F5.7°C 41.2°F5.1°C 96% Calm Calm -- 30.16 in1021.3 mb 0.00 in0.0 mm 0.00 in0.0 mm 0.02 in0.5 mm
06:25 AM 42.4°F5.8°C 41.3°F5.2°C 96% Calm Calm -- 30.15 in1021.0 mb 0.00 in0.0 mm 0.00 in0.0 mm 0.02 in0.5 mm
06:20 AM 42.4°F5.8°C 41.3°F5.2°C 96% Calm Calm -- 30.15 in1021.0 mb 0.00 in0.0 mm 0.00 in0.0 mm 0.02 in0.5 mm
06:15 AM 42.4°F5.8°C 41.3°F5.2°C 96% Calm Calm -- 30.15 in1021.0 mb 0.00 in0.0 mm 0.00 in0.0 mm 0.02 in0.5 mm
06:10 AM 42.4°F5.8°C 41.3°F5.2°C 96% Calm Calm -- 30.14 in1020.7 mb 0.00 in0.0 mm 0.00 in0.0 mm 0.02 in0.5 mm
06:05 AM 42.4°F5.8°C 41.3°F5.2°C 96% Calm Calm -- 30.14 in1020.7 mb 0.00 in0.0 mm 0.00 in0.0 mm 0.02 in0.5 mm
06:00 AM 42.4°F5.8°C 41.3°F5.2°C 96% Calm Calm -- 30.14 in1020.7 mb 0.00 in0.0 mm 0.00 in0.0 mm 0.02 in0.5 mm
05:55 AM 42.4°F5.8°C 41.3°F5.2°C 96% Calm Calm -- 30.14 in1020.7 mb 0.00 in0.0 mm 0.00 in0.0 mm 0.02 in0.5 mm
05:50 AM 42.4°F5.8°C 41.3°F5.2°C 96% Calm Calm -- 30.14 in1020.7 mb 0.00 in0.0 mm 0.00 in0.0 mm 0.02 in0.5 mm
05:45 AM 42.3°F5.7°C 41.0°F5.0°C 95% Calm Calm -- 30.14 in1020.7 mb 0.00 in0.0 mm 0.00 in0.0 mm 0.02 in0.5 mm
05:40 AM 42.4°F5.8°C 41.1°F5.1°C 95% Calm Calm -- 30.14 in1020.7 mb 0.00 in0.0 mm 0.00 in0.0 mm 0.02 in0.5 mm
05:35 AM 42.4°F5.8°C 41.1°F5.1°C 95% Calm Calm -- 30.14 in1020.7 mb 0.00 in0.0 mm 0.00 in0.0 mm 0.02 in0.5 mm
05:30 AM 42.3°F5.7°C 41.0°F5.0°C 95% Calm Calm -- 30.14 in1020.7 mb 0.00 in0.0 mm 0.00 in0.0 mm 0.02 in0.5 mm
05:25 AM 42.3°F5.7°C 41.0°F5.0°C 95% Calm Calm -- 30.14 in1020.7 mb 0.00 in0.0 mm 0.00 in0.0 mm 0.02 in0.5 mm
05:20 AM 42.2°F5.7°C 40.9°F4.9°C 95% Calm Calm -- 30.13 in1020.3 mb 0.00 in0.0 mm 0.00 in0.0 mm 0.02 in0.5 mm
05:15 AM 42.1°F5.6°C 40.8°F4.9°C 95% Calm Calm -- 30.13 in1020.3 mb 0.00 in0.0 mm 0.00 in0.0 mm 0.02 in0.5 mm
05:10 AM 42.1°F5.6°C 40.8°F4.9°C 95% Calm Calm -- 30.13 in1020.3 mb 0.00 in0.0 mm 0.00 in0.0 mm 0.02 in0.5 mm
05:05 AM 42.0°F5.6°C 40.7°F4.8°C 95% Calm Calm -- 30.13 in1020.3 mb 0.00 in0.0 mm 0.00 in0.0 mm 0.02 in0.5 mm
05:00 AM 42.0°F5.6°C 40.7°F4.8°C 95% Calm Calm -- 30.13 in1020.3 mb 0.00 in0.0 mm 0.00 in0.0 mm 0.02 in0.5 mm
04:55 AM 42.0°F5.6°C 40.7°F4.8°C 95% Calm Calm -- 30.12 in1020.0 mb 0.00 in0.0 mm 0.00 in0.0 mm 0.02 in0.5 mm
04:50 AM 41.9°F5.5°C 40.6°F4.8°C 95% Calm Calm -- 30.12 in1020.0 mb 0.00 in0.0 mm 0.00 in0.0 mm 0.02 in0.5 mm
04:45 AM 41.9°F5.5°C 40.6°F4.8°C 95% Calm Calm -- 30.12 in1020.0 mb 0.00 in0.0 mm 0.00 in0.0 mm 0.02 in0.5 mm
04:40 AM 42.0°F5.6°C 40.7°F4.8°C 95% Calm Calm -- 30.12 in1020.0 mb 0.00 in0.0 mm 0.00 in0.0 mm 0.02 in0.5 mm
04:35 AM 42.0°F5.6°C 40.7°F4.8°C 95% Calm Calm -- 30.12 in1020.0 mb 0.00 in0.0 mm 0.00 in0.0 mm 0.02 in0.5 mm
04:30 AM 42.1°F5.6°C 41.0°F5.0°C 96% Calm Calm -- 30.12 in1020.0 mb 0.00 in0.0 mm 0.00 in0.0 mm 0.02 in0.5 mm
04:25 AM 42.1°F5.6°C 41.0°F5.0°C 96% Calm Calm -- 30.12 in1020.0 mb 0.00 in0.0 mm 0.00 in0.0 mm 0.02 in0.5 mm
04:20 AM 42.1°F5.6°C 41.0°F5.0°C 96% Calm Calm -- 30.12 in1020.0 mb 0.00 in0.0 mm 0.00 in0.0 mm 0.02 in0.5 mm
04:15 AM 42.0°F5.6°C 40.9°F4.9°C 96% Calm Calm -- 30.12 in1020.0 mb 0.00 in0.0 mm 0.00 in0.0 mm 0.02 in0.5 mm
04:10 AM 42.0°F5.6°C 40.9°F4.9°C 96% Calm Calm -- 30.12 in1020.0 mb 0.00 in0.0 mm 0.00 in0.0 mm 0.02 in0.5 mm
04:05 AM 42.0°F5.6°C 40.7°F4.8°C 95% Calm Calm -- 30.12 in1020.0 mb 0.00 in0.0 mm 0.00 in0.0 mm 0.02 in0.5 mm
04:00 AM 42.0°F5.6°C 40.7°F4.8°C 95% Calm Calm -- 30.12 in1020.0 mb 0.00 in0.0 mm 0.00 in0.0 mm 0.02 in0.5 mm
03:55 AM 41.9°F5.5°C 40.6°F4.8°C 95% Calm Calm -- 30.12 in1020.0 mb 0.00 in0.0 mm 0.00 in0.0 mm 0.02 in0.5 mm
03:50 AM 41.9°F5.5°C 40.6°F4.8°C 95% Calm Calm -- 30.12 in1020.0 mb 0.00 in0.0 mm 0.00 in0.0 mm 0.02 in0.5 mm
03:45 AM 41.8°F5.4°C 40.5°F4.7°C 95% Calm Calm -- 30.12 in1020.0 mb 0.00 in0.0 mm 0.00 in0.0 mm 0.02 in0.5 mm
03:40 AM 41.8°F5.4°C 40.2°F4.6°C 94% Calm Calm -- 30.12 in1020.0 mb 0.00 in0.0 mm 0.00 in0.0 mm 0.02 in0.5 mm
03:35 AM 41.9°F5.5°C 40.3°F4.6°C 94% Calm Calm -- 30.12 in1020.0 mb 0.00 in0.0 mm 0.00 in0.0 mm 0.02 in0.5 mm
03:30 AM 42.0°F5.6°C 40.4°F4.7°C 94% Calm Calm -- 30.12 in1020.0 mb 0.00 in0.0 mm 0.00 in0.0 mm 0.02 in0.5 mm
03:25 AM 42.0°F5.6°C 40.1°F4.5°C 93% Calm Calm -- 30.11 in1019.6 mb 0.00 in0.0 mm 0.00 in0.0 mm 0.02 in0.5 mm
03:20 AM 42.2°F5.7°C 40.3°F4.6°C 93% Calm Calm -- 30.12 in1020.0 mb 0.00 in0.0 mm 0.00 in0.0 mm 0.02 in0.5 mm
03:15 AM 42.3°F5.7°C 40.4°F4.7°C 93% Calm Calm -- 30.11 in1019.6 mb 0.00 in0.0 mm 0.00 in0.0 mm 0.02 in0.5 mm
03:10 AM 42.4°F5.8°C 40.5°F4.7°C 93% Calm Calm -- 30.11 in1019.6 mb 0.00 in0.0 mm 0.00 in0.0 mm 0.02 in0.5 mm
03:05 AM 42.6°F5.9°C 40.4°F4.7°C 92% Calm Calm -- 30.11 in1019.6 mb 0.00 in0.0 mm 0.00 in0.0 mm 0.02 in0.5 mm
03:00 AM 42.7°F5.9°C 40.5°F4.7°C 92% Calm Calm -- 30.11 in1019.6 mb 0.00 in0.0 mm 0.00 in0.0 mm 0.02 in0.5 mm
02:55 AM 42.8°F6.0°C 40.6°F4.8°C 92% Calm Calm -- 30.11 in1019.6 mb 0.00 in0.0 mm 0.00 in0.0 mm 0.02 in0.5 mm
02:50 AM 42.8°F6.0°C 40.6°F4.8°C 92% 1.0 mph W1.6 kmh W 1.0 mph1.6 kmh 30.11 in1019.6 mb 0.00 in0.0 mm 0.00 in0.0 mm 0.02 in0.5 mm
02:45 AM 42.8°F6.0°C 40.6°F4.8°C 92% 1.0 mph W1.6 kmh W 1.0 mph1.6 kmh 30.11 in1019.6 mb 0.00 in0.0 mm 0.00 in0.0 mm 0.02 in0.5 mm
02:40 AM 42.8°F6.0°C 40.6°F4.8°C 92% Calm Calm 1.0 mph1.6 kmh 30.11 in1019.6 mb 0.00 in0.0 mm 0.00 in0.0 mm 0.02 in0.5 mm
02:35 AM 42.7°F5.9°C 40.5°F4.7°C 92% 2.0 mph W3.2 kmh W 3.0 mph4.8 kmh 30.10 in1019.3 mb 0.00 in0.0 mm 0.00 in0.0 mm 0.02 in0.5 mm
02:30 AM 42.7°F5.9°C 40.5°F4.7°C 92% 1.0 mph WNW1.6 kmh WNW 2.0 mph3.2 kmh 30.10 in1019.3 mb 0.00 in0.0 mm 0.00 in0.0 mm 0.02 in0.5 mm
02:25 AM 42.7°F5.9°C 40.8°F4.9°C 93% Calm Calm -- 30.10 in1019.3 mb 0.00 in0.0 mm 0.00 in0.0 mm 0.02 in0.5 mm
02:20 AM 42.4°F5.8°C 40.5°F4.7°C 93% 1.0 mph WNW1.6 kmh WNW 2.0 mph3.2 kmh 30.10 in1019.3 mb 0.00 in0.0 mm 0.00 in0.0 mm 0.02 in0.5 mm
02:15 AM 42.1°F5.6°C 40.5°F4.7°C 94% 2.0 mph W3.2 kmh W 4.0 mph6.4 kmh 30.09 in1019.0 mb 0.00 in0.0 mm 0.00 in0.0 mm 0.02 in0.5 mm
02:10 AM 42.1°F5.6°C 40.2°F4.6°C 93% Calm Calm 1.0 mph1.6 kmh 30.09 in1019.0 mb 0.00 in0.0 mm 0.00 in0.0 mm 0.02 in0.5 mm
02:05 AM 42.1°F5.6°C 40.2°F4.6°C 93% Calm Calm -- 30.09 in1019.0 mb 0.00 in0.0 mm 0.00 in0.0 mm 0.02 in0.5 mm
02:00 AM 42.1°F5.6°C 40.5°F4.7°C 94% 2.0 mph NW3.2 kmh NW 2.0 mph3.2 kmh 30.09 in1019.0 mb 0.01 in0.3 mm 0.00 in0.0 mm 0.02 in0.5 mm
01:55 AM 42.2°F5.7°C 40.6°F4.8°C 94% Calm Calm -- 30.09 in1019.0 mb 0.01 in0.3 mm 0.00 in0.0 mm 0.02 in0.5 mm
01:50 AM 42.2°F5.7°C 40.3°F4.6°C 93% Calm Calm 1.0 mph1.6 kmh 30.09 in1019.0 mb 0.01 in0.3 mm 0.00 in0.0 mm 0.02 in0.5 mm
01:45 AM 42.3°F5.7°C 40.4°F4.7°C 93% Calm Calm -- 30.09 in1019.0 mb 0.01 in0.3 mm 0.00 in0.0 mm 0.02 in0.5 mm
01:40 AM 42.5°F5.8°C 40.6°F4.8°C 93% Calm Calm -- 30.08 in1018.6 mb 0.01 in0.3 mm 0.00 in0.0 mm 0.02 in0.5 mm
01:35 AM 42.5°F5.8°C 40.6°F4.8°C 93% 1.0 mph ENE1.6 kmh ENE 1.0 mph1.6 kmh 30.08 in1018.6 mb 0.01 in0.3 mm 0.00 in0.0 mm 0.02 in0.5 mm
01:30 AM 42.6°F5.9°C 40.7°F4.8°C 93% Calm Calm -- 30.08 in1018.6 mb 0.01 in0.3 mm 0.00 in0.0 mm 0.02 in0.5 mm
01:25 AM 42.6°F5.9°C 40.7°F4.8°C 93% Calm Calm -- 30.08 in1018.6 mb 0.01 in0.3 mm 0.00 in0.0 mm 0.02 in0.5 mm
01:20 AM 42.5°F5.8°C 40.6°F4.8°C 93% Calm Calm -- 30.08 in1018.6 mb 0.01 in0.3 mm 0.00 in0.0 mm 0.02 in0.5 mm
01:15 AM 42.5°F5.8°C 40.9°F4.9°C 94% Calm Calm 1.0 mph1.6 kmh 30.08 in1018.6 mb 0.01 in0.3 mm 0.00 in0.0 mm 0.02 in0.5 mm
01:10 AM 42.6°F5.9°C 41.0°F5.0°C 94% Calm Calm 1.0 mph1.6 kmh 30.08 in1018.6 mb 0.01 in0.3 mm 0.00 in0.0 mm 0.02 in0.5 mm
01:05 AM 42.6°F5.9°C 41.3°F5.2°C 95% Calm Calm -- 30.07 in1018.3 mb 0.01 in0.3 mm 0.00 in0.0 mm 0.02 in0.5 mm
01:00 AM 42.5°F5.8°C 41.4°F5.2°C 96% 5.0 mph WNW8.0 kmh WNW 6.0 mph9.7 kmh 30.07 in1018.3 mb 0.01 in0.3 mm 0.01 in0.3 mm 0.02 in0.5 mm
12:55 AM 42.4°F5.8°C 41.3°F5.2°C 96% Calm Calm -- 30.07 in1018.3 mb 0.00 in0.0 mm 0.00 in0.0 mm 0.01 in0.3 mm
12:50 AM 42.4°F5.8°C 41.3°F5.2°C 96% Calm Calm -- 30.07 in1018.3 mb 0.00 in0.0 mm 0.00 in0.0 mm 0.01 in0.3 mm
12:45 AM 42.4°F5.8°C 41.3°F5.2°C 96% Calm Calm -- 30.07 in1018.3 mb 0.00 in0.0 mm 0.00 in0.0 mm 0.01 in0.3 mm
12:40 AM 42.5°F5.8°C 41.4°F5.2°C 96% Calm Calm 2.0 mph3.2 kmh 30.07 in1018.3 mb 0.00 in0.0 mm 0.00 in0.0 mm 0.01 in0.3 mm
12:35 AM 42.4°F5.8°C 41.3°F5.2°C 96% Calm Calm -- 30.07 in1018.3 mb 0.00 in0.0 mm 0.00 in0.0 mm 0.01 in0.3 mm
12:30 AM 42.4°F5.8°C 41.3°F5.2°C 96% Calm Calm -- 30.07 in1018.3 mb 0.00 in0.0 mm 0.00 in0.0 mm 0.01 in0.3 mm
12:25 AM 42.4°F5.8°C 41.3°F5.2°C 96% Calm Calm -- 30.07 in1018.3 mb 0.00 in0.0 mm 0.00 in0.0 mm 0.01 in0.3 mm
12:20 AM 42.4°F5.8°C 41.3°F5.2°C 96% Calm Calm -- 30.06 in1017.9 mb 0.00 in0.0 mm 0.00 in0.0 mm 0.01 in0.3 mm
12:15 AM 42.4°F5.8°C 41.1°F5.1°C 95% Calm Calm -- 30.06 in1017.9 mb 0.00 in0.0 mm 0.00 in0.0 mm 0.01 in0.3 mm
12:10 AM 42.4°F5.8°C 41.1°F5.1°C 95% Calm Calm -- 30.06 in1017.9 mb 0.00 in0.0 mm 0.00 in0.0 mm 0.01 in0.3 mm
12:05 AM 42.4°F5.8°C 41.1°F5.1°C 95% Calm Calm -- 30.06 in1017.9 mb 0.00 in0.0 mm 0.00 in0.0 mm 0.01 in0.3 mm
12:00 AM 42.4°F5.8°C 41.1°F5.1°C 95% Calm Calm -- 30.06 in1017.9 mb 0.01 in0.3 mm 0.00 in0.0 mm 0.01 in0.3 mm